createdAt,value
2023-05-22T00:01:30.167Z,99109.22
2023-05-22T00:03:58.020Z,99113.88
2023-05-22T00:06:26.220Z,99112.63
2023-05-22T00:08:53.175Z,99105.81
2023-05-22T00:11:21.071Z,99106.16
2023-05-22T00:13:48.237Z,99100.97
2023-05-22T00:16:15.090Z,99109.53
2023-05-22T00:18:42.587Z,99086.06
2023-05-22T00:21:10.382Z,99104.16
2023-05-22T00:23:37.683Z,99102.00
2023-05-22T00:26:04.841Z,99109.50
2023-05-22T00:28:35.341Z,99101.06
2023-05-22T00:31:02.305Z,99105.47
2023-05-22T00:33:29.295Z,99100.28
2023-05-22T00:35:56.355Z,99104.84
2023-05-22T00:38:31.066Z,99103.84
2023-05-22T00:40:59.300Z,99087.63
2023-05-22T00:43:26.988Z,99115.78
2023-05-22T00:45:54.694Z,99103.59
2023-05-22T00:48:22.549Z,99090.91
2023-05-22T00:50:54.549Z,99110.44
2023-05-22T00:53:22.695Z,99107.16
2023-05-22T00:55:51.043Z,99096.31
2023-05-22T00:58:18.769Z,99100.03
2023-05-22T01:00:49.140Z,99100.19
2023-05-22T01:03:17.822Z,99095.56
2023-05-22T01:05:45.747Z,99073.84
2023-05-22T01:08:13.462Z,99092.03
2023-05-22T01:10:43.078Z,99093.56
2023-05-22T01:13:27.228Z,99097.16
2023-05-22T01:16:12.482Z,99096.81
2023-05-22T01:18:52.679Z,99098.97
2023-05-22T01:21:48.096Z,99082.03
2023-05-22T01:24:48.157Z,99094.50
2023-05-22T01:27:39.791Z,99084.78
2023-05-22T01:30:31.356Z,99083.28
2023-05-22T01:32:59.254Z,99076.50
2023-05-22T01:35:28.504Z,99082.38
2023-05-22T01:37:57.849Z,99081.56
2023-05-22T01:40:26.243Z,99079.59
2023-05-22T01:42:53.401Z,99074.75
2023-05-22T01:45:21.559Z,99080.19
2023-05-22T01:47:48.883Z,99077.88
2023-05-22T01:50:18.356Z,99082.38
2023-05-22T01:53:06.647Z,99079.50
2023-05-22T01:55:43.055Z,99085.03
2023-05-22T01:58:20.575Z,99085.72
2023-05-22T02:00:51.771Z,99077.88
2023-05-22T02:03:22.431Z,99088.72
2023-05-22T02:05:55.906Z,99080.88
2023-05-22T02:08:23.257Z,99088.50
2023-05-22T02:10:51.251Z,99085.50
2023-05-22T02:13:21.845Z,99082.28
2023-05-22T02:15:49.344Z,99062.66
2023-05-22T02:18:16.470Z,99086.78
2023-05-22T02:20:45.738Z,99091.03
2023-05-22T02:23:12.801Z,99086.78
2023-05-22T02:25:39.735Z,99084.34
2023-05-22T02:28:06.894Z,99086.44
2023-05-22T02:30:34.138Z,99090.00
2023-05-22T02:33:01.477Z,99087.00
2023-05-22T02:35:29.019Z,99081.25
2023-05-22T02:37:56.626Z,99097.97
2023-05-22T02:40:23.690Z,99093.13
2023-05-22T02:42:50.712Z,99083.63
2023-05-22T02:45:18.043Z,99076.69
2023-05-22T02:47:45.674Z,99091.25
2023-05-22T02:50:13.197Z,99065.53
2023-05-22T02:52:40.381Z,99093.81
2023-05-22T02:55:08.271Z,99074.63
2023-05-22T02:57:35.794Z,99090.81
2023-05-22T03:00:06.996Z,99069.31
2023-05-22T03:02:34.930Z,99091.72
2023-05-22T03:05:01.863Z,99089.19
2023-05-22T03:07:29.941Z,99083.66
2023-05-22T03:09:56.933Z,99101.53
2023-05-22T03:12:24.066Z,99071.63
2023-05-22T03:14:51.114Z,99092.03
2023-05-22T03:17:18.179Z,99095.84
2023-05-22T03:19:45.240Z,99096.31
2023-05-22T03:22:12.333Z,99089.72
2023-05-22T03:24:40.076Z,99089.28
2023-05-22T03:27:07.775Z,99099.19
2023-05-22T03:29:41.262Z,99091.91
2023-05-22T03:32:09.658Z,99095.38
2023-05-22T03:34:36.940Z,99075.22
2023-05-22T03:37:06.952Z,99101.25
2023-05-22T03:39:40.567Z,99099.28
2023-05-22T03:42:26.386Z,99098.59
2023-05-22T03:44:53.728Z,99106.81
2023-05-22T03:47:21.038Z,99094.34
2023-05-22T03:49:48.261Z,99124.50
2023-05-22T03:52:15.090Z,99114.34
2023-05-22T03:54:43.036Z,99115.84
2023-05-22T03:57:10.178Z,99114.81
2023-05-22T03:59:37.256Z,99111.56
2023-05-22T04:02:05.495Z,99103.44
2023-05-22T04:04:38.670Z,99113.38
2023-05-22T04:07:08.321Z,99112.91
2023-05-22T04:09:36.261Z,99103.19
2023-05-22T04:12:03.770Z,99105.16
2023-05-22T04:14:30.769Z,99087.84
2023-05-22T04:16:57.755Z,99099.03
2023-05-22T04:19:25.213Z,99103.19
2023-05-22T04:21:52.691Z,99080.81
2023-05-22T04:24:19.918Z,99100.94
2023-05-22T04:26:46.772Z,99104.19
2023-05-22T04:29:14.580Z,99114.44
2023-05-22T04:31:42.979Z,99118.97
2023-05-22T04:34:13.275Z,99104.59
2023-05-22T04:36:40.405Z,99104.50
2023-05-22T04:39:08.212Z,99105.72
2023-05-22T04:41:35.313Z,99099.91
2023-05-22T04:44:04.131Z,99107.00
2023-05-22T04:46:31.791Z,99106.84
2023-05-22T04:49:02.318Z,99096.53
2023-05-22T04:51:31.368Z,99098.59
2023-05-22T04:53:58.551Z,99103.00
2023-05-22T04:58:56.853Z,99109.38
2023-05-22T05:01:25.235Z,99108.75
2023-05-22T05:03:52.587Z,99106.19
2023-05-22T05:06:21.873Z,99110.03
2023-05-22T05:08:49.826Z,99101.44
2023-05-22T05:11:16.852Z,99108.34
2023-05-22T05:13:43.899Z,99111.31
2023-05-22T05:16:10.901Z,99109.78
2023-05-22T05:18:38.073Z,99108.97
2023-05-22T05:21:05.847Z,99099.03
2023-05-22T05:23:32.810Z,99110.50
2023-05-22T05:25:59.945Z,99112.72
2023-05-22T05:28:27.931Z,99095.81
2023-05-22T05:30:55.002Z,99098.25
2023-05-22T05:33:49.151Z,99112.59
2023-05-22T05:36:30.351Z,99108.94
2023-05-22T05:38:58.582Z,99112.72
2023-05-22T05:41:27.063Z,99119.19
2023-05-22T05:44:06.125Z,99115.19
2023-05-22T05:46:33.304Z,99104.06
2023-05-22T05:49:06.240Z,99120.63
2023-05-22T05:51:33.261Z,99123.41
2023-05-22T05:54:00.312Z,99130.88
2023-05-22T05:56:27.576Z,99111.88
2023-05-22T05:58:55.257Z,99134.47
2023-05-22T06:01:38.721Z,99126.44
2023-05-22T06:04:12.421Z,99128.72
2023-05-22T06:06:40.024Z,99126.50
2023-05-22T06:09:10.065Z,99134.78
2023-05-22T06:11:57.032Z,99135.72
2023-05-22T06:14:24.717Z,99131.34
2023-05-22T06:16:51.935Z,99122.50
2023-05-22T06:19:19.257Z,99120.94
2023-05-22T06:21:47.032Z,99138.13
2023-05-22T06:24:14.391Z,99131.03
2023-05-22T06:26:41.779Z,99141.72
2023-05-22T06:29:08.882Z,99132.31
2023-05-22T06:31:38.810Z,99106.88
2023-05-22T06:34:07.421Z,99115.97
2023-05-22T06:36:34.879Z,99122.50
2023-05-22T06:39:02.899Z,99128.22
2023-05-22T06:41:59.499Z,99128.19
2023-05-22T06:44:26.463Z,99125.03
2023-05-22T06:46:55.816Z,99118.69
2023-05-22T06:49:24.993Z,99112.88
2023-05-22T06:51:54.673Z,99115.72
2023-05-22T06:54:22.486Z,99112.16
2023-05-22T06:56:57.032Z,99122.13
2023-05-22T06:59:26.791Z,99112.81
2023-05-22T07:02:06.353Z,99106.06
2023-05-22T07:04:53.721Z,99120.94
2023-05-22T07:07:27.835Z,99109.75
2023-05-22T07:09:54.841Z,99109.03
2023-05-22T07:12:26.113Z,99121.75
2023-05-22T07:14:54.729Z,99107.31
2023-05-22T07:17:23.980Z,99121.72
2023-05-22T07:19:51.631Z,99115.00
2023-05-22T07:22:18.765Z,99105.34
2023-05-22T07:24:47.711Z,99118.72
2023-05-22T07:27:16.718Z,99116.47
2023-05-22T07:29:46.479Z,99121.09
2023-05-22T07:32:14.003Z,99114.47
2023-05-22T07:34:41.757Z,99111.72
2023-05-22T07:37:13.072Z,99114.16
2023-05-22T07:39:41.357Z,99119.72
2023-05-22T07:42:09.674Z,99113.38
2023-05-22T07:44:43.418Z,99115.66
2023-05-22T07:47:10.640Z,99117.38
2023-05-22T07:49:38.840Z,99120.22
2023-05-22T07:52:06.866Z,99124.63
2023-05-22T07:54:33.820Z,99108.56
2023-05-22T07:57:03.801Z,99116.56
2023-05-22T07:59:37.818Z,99094.91
2023-05-22T08:02:05.245Z,99111.81
2023-05-22T08:04:32.278Z,99110.28
2023-05-22T08:06:59.570Z,99102.28
2023-05-22T08:09:26.541Z,99105.50
2023-05-22T08:11:53.656Z,99117.03
2023-05-22T08:14:22.214Z,99107.78
2023-05-22T08:16:49.918Z,99115.44
2023-05-22T08:19:16.999Z,99115.16
2023-05-22T08:21:44.218Z,99110.38
2023-05-22T08:24:11.477Z,99096.78
2023-05-22T08:26:39.673Z,99115.59
2023-05-22T08:29:06.700Z,99121.63
2023-05-22T08:31:34.419Z,99117.22
2023-05-22T08:34:05.572Z,99120.81
2023-05-22T08:36:34.083Z,99126.81
2023-05-22T08:39:02.250Z,99114.78
2023-05-22T08:41:30.190Z,99095.56
2023-05-22T08:43:57.641Z,99095.19
2023-05-22T08:46:29.410Z,99111.22
2023-05-22T08:49:00.284Z,99121.63
2023-05-22T08:51:31.498Z,99104.78
2023-05-22T08:53:58.982Z,99113.59
2023-05-22T08:56:29.173Z,99110.00
2023-05-22T08:58:59.054Z,99109.59
2023-05-22T09:01:26.630Z,99090.38
2023-05-22T09:03:54.127Z,99104.00
2023-05-22T09:06:21.161Z,99100.81
2023-05-22T09:08:50.045Z,99100.41
2023-05-22T09:11:18.570Z,99095.19
2023-05-22T09:13:45.928Z,99092.78
2023-05-22T09:16:14.059Z,99063.09
2023-05-22T09:18:42.637Z,99088.69
2023-05-22T09:21:25.643Z,99082.16
2023-05-22T09:24:01.968Z,99075.56
2023-05-22T09:26:29.699Z,99067.06
2023-05-22T09:28:59.899Z,99081.56
2023-05-22T09:31:29.234Z,99079.69
2023-05-22T09:33:56.801Z,99086.91
2023-05-22T09:36:33.575Z,99083.78
2023-05-22T09:39:02.064Z,99077.38
2023-05-22T09:41:30.656Z,99082.16
2023-05-22T09:43:59.757Z,99065.00
2023-05-22T09:46:28.105Z,99083.00
2023-05-22T09:48:55.356Z,99079.38
2023-05-22T09:51:26.812Z,99073.78
2023-05-22T09:54:08.163Z,99077.06
2023-05-22T09:56:39.932Z,99068.19
2023-05-22T09:59:10.046Z,99072.56
2023-05-22T10:01:40.332Z,99073.41
2023-05-22T10:04:13.987Z,99079.81
2023-05-22T10:06:45.977Z,99073.41
2023-05-22T10:09:19.879Z,99074.94
2023-05-22T10:11:48.960Z,99074.53
2023-05-22T10:14:16.798Z,99056.34
2023-05-22T10:16:45.283Z,99073.13
2023-05-22T10:19:13.883Z,99059.16
2023-05-22T10:21:42.305Z,99062.81
2023-05-22T10:24:10.369Z,99055.69
2023-05-22T10:26:38.857Z,99052.81
2023-05-22T10:29:12.441Z,99046.13
2023-05-22T10:31:58.436Z,99037.66
2023-05-22T10:34:52.391Z,99042.25
2023-05-22T10:37:28.896Z,99020.28
2023-05-22T10:40:05.608Z,99039.78
2023-05-22T10:42:33.202Z,99036.75
2023-05-22T10:45:04.709Z,99032.75
2023-05-22T10:47:34.048Z,99017.75
2023-05-22T10:50:09.975Z,99017.59
2023-05-22T10:52:39.623Z,99014.44
2023-05-22T10:55:11.031Z,99017.59
2023-05-22T10:57:39.931Z,99018.75
2023-05-22T11:00:16.441Z,99000.88
2023-05-22T11:02:47.014Z,99003.69
2023-05-22T11:05:19.591Z,99004.25
2023-05-22T11:07:46.942Z,99007.88
2023-05-22T11:10:14.111Z,98999.38
2023-05-22T11:12:41.759Z,98996.81
2023-05-22T11:15:11.707Z,98985.50
2023-05-22T11:17:52.224Z,98990.28
2023-05-22T11:20:26.797Z,98996.25
2023-05-22T11:23:08.430Z,98992.63
2023-05-22T11:25:37.648Z,98998.06
2023-05-22T11:28:06.344Z,98983.91
2023-05-22T11:30:35.093Z,98978.13
2023-05-22T11:33:02.926Z,98981.59
2023-05-22T11:35:30.962Z,98957.03
2023-05-22T11:37:59.011Z,98964.41
2023-05-22T11:40:29.826Z,98963.47
2023-05-22T11:42:57.150Z,98984.56
2023-05-22T11:45:24.274Z,98980.03
2023-05-22T11:47:51.571Z,98977.47
2023-05-22T11:52:50.451Z,98976.31
2023-05-22T11:55:17.839Z,98972.31
2023-05-22T11:57:44.898Z,98939.81
2023-05-22T12:00:12.637Z,98960.19
2023-05-22T12:02:45.850Z,98962.84
2023-05-22T12:05:14.427Z,98959.84
2023-05-22T12:07:42.027Z,98953.69
2023-05-22T12:10:10.007Z,98958.78
2023-05-22T12:12:37.838Z,98948.84
2023-05-22T12:15:09.176Z,98952.72
2023-05-22T12:17:40.288Z,98949.88
2023-05-22T12:20:07.820Z,98935.44
2023-05-22T12:22:41.298Z,98946.44
2023-05-22T12:25:20.749Z,98937.34
2023-05-22T12:27:48.012Z,98949.97
2023-05-22T12:30:15.948Z,98941.16
2023-05-22T12:32:51.033Z,98942.44
2023-05-22T12:35:19.787Z,98945.47
2023-05-22T12:37:53.569Z,98948.38
2023-05-22T12:40:20.994Z,98940.47
2023-05-22T12:42:49.444Z,98942.50
2023-05-22T12:45:18.268Z,98917.78
2023-05-22T12:47:46.451Z,98939.38
2023-05-22T12:50:14.243Z,98921.72
2023-05-22T12:52:41.690Z,98929.72
2023-05-22T12:55:11.739Z,98920.88
2023-05-22T12:57:38.945Z,98901.38
2023-05-22T13:00:06.793Z,98901.88
2023-05-22T13:02:34.673Z,98908.47
2023-05-22T13:05:02.010Z,98877.25
2023-05-22T13:07:29.102Z,98882.16
2023-05-22T13:09:56.131Z,98893.03
2023-05-22T13:12:24.417Z,98872.59
2023-05-22T13:14:52.171Z,98868.09
2023-05-22T13:17:19.977Z,98879.06
2023-05-22T13:19:47.884Z,98860.88
2023-05-22T13:22:15.827Z,98879.94
2023-05-22T13:24:43.612Z,98832.75
2023-05-22T13:27:11.677Z,98885.53
2023-05-22T13:29:39.387Z,98883.50
2023-05-22T13:32:06.768Z,98882.41
2023-05-22T13:34:34.167Z,98884.47
2023-05-22T13:37:01.636Z,98875.66
2023-05-22T13:39:28.902Z,98884.28
2023-05-22T13:41:56.667Z,98888.34
2023-05-22T13:44:24.345Z,98888.03
2023-05-22T13:46:51.792Z,98899.59
2023-05-22T13:49:19.026Z,98890.06
2023-05-22T13:51:46.380Z,98883.06
2023-05-22T13:54:13.421Z,98897.50
2023-05-22T13:56:41.451Z,98893.25
2023-05-22T13:59:09.439Z,98893.72
2023-05-22T14:01:36.833Z,98895.34
2023-05-22T14:04:04.702Z,98892.59
2023-05-22T14:06:31.956Z,98877.06
2023-05-22T14:08:59.741Z,98904.84
2023-05-22T14:11:27.817Z,98886.06
2023-05-22T14:13:54.713Z,98901.97
2023-05-22T14:16:22.744Z,98883.97
2023-05-22T14:18:49.873Z,98896.69
2023-05-22T14:21:19.025Z,98888.19
2023-05-22T14:23:46.062Z,98872.16
2023-05-22T14:26:14.405Z,98882.97
2023-05-22T14:28:41.937Z,98892.44
2023-05-22T14:31:09.234Z,98892.69
2023-05-22T14:33:36.201Z,98893.94
2023-05-22T14:36:03.461Z,98896.47
2023-05-22T14:38:34.946Z,98897.38
2023-05-22T14:41:02.215Z,98890.38
2023-05-22T14:43:29.396Z,98877.25
2023-05-22T14:45:58.225Z,98897.31
2023-05-22T14:48:26.597Z,98895.69
2023-05-22T14:50:54.161Z,98890.84
2023-05-22T14:53:21.203Z,98891.72
2023-05-22T14:55:48.158Z,98896.22
2023-05-22T14:58:15.168Z,98881.84
2023-05-22T15:00:50.733Z,98888.28
2023-05-22T15:03:19.434Z,98886.34
2023-05-22T15:05:46.393Z,98877.19
2023-05-22T15:08:13.350Z,98883.63
2023-05-22T15:10:40.289Z,98885.63
2023-05-22T15:13:07.141Z,98886.03
2023-05-22T15:15:34.141Z,98881.69
2023-05-22T15:18:02.846Z,98875.34
2023-05-22T15:20:32.345Z,98885.34
2023-05-22T15:23:00.474Z,98862.19
2023-05-22T15:25:27.579Z,98869.00
2023-05-22T15:27:54.800Z,98878.53
2023-05-22T15:30:23.509Z,98873.72
2023-05-22T15:32:50.850Z,98875.34
2023-05-22T15:35:17.903Z,98880.50
2023-05-22T15:37:45.107Z,98868.84
2023-05-22T15:40:16.452Z,98878.34
2023-05-22T15:42:44.065Z,98872.53
2023-05-22T15:46:04.343Z,98880.38
2023-05-22T15:48:34.333Z,98886.38
2023-05-22T15:51:01.340Z,98886.88
2023-05-22T15:53:28.572Z,98882.84
2023-05-22T15:55:55.506Z,98877.16
2023-05-22T15:58:22.530Z,98875.97
2023-05-22T16:00:49.908Z,98877.63
2023-05-22T16:03:17.299Z,98881.75
2023-05-22T16:05:48.424Z,98893.91
2023-05-22T16:08:16.510Z,98888.00
2023-05-22T16:10:45.426Z,98905.09
2023-05-22T16:13:13.473Z,98911.94
2023-05-22T16:15:41.312Z,98901.94
2023-05-22T16:18:52.357Z,98902.31
2023-05-22T16:21:20.285Z,98912.97
2023-05-22T16:23:47.910Z,98908.31
2023-05-22T16:26:20.926Z,98917.69
2023-05-22T16:28:48.529Z,98914.94
2023-05-22T16:31:19.921Z,98923.41
2023-05-22T16:33:46.689Z,98919.06
2023-05-22T16:36:14.026Z,98927.44
2023-05-22T16:38:42.434Z,98910.22
2023-05-22T16:41:09.519Z,98922.63
2023-05-22T16:43:38.247Z,98920.59
2023-05-22T16:46:05.156Z,98934.97
2023-05-22T16:48:32.576Z,98950.88
2023-05-22T16:50:59.678Z,98941.25
2023-05-22T16:53:26.719Z,98946.38
2023-05-22T16:55:54.010Z,98951.16
2023-05-22T16:58:21.856Z,98952.28
2023-05-22T17:00:55.848Z,98963.50
2023-05-22T17:03:23.079Z,98969.81
2023-05-22T17:05:50.743Z,98962.56
2023-05-22T17:08:18.373Z,98994.56
2023-05-22T17:10:45.560Z,98987.38
2023-05-22T17:13:19.952Z,98992.19
2023-05-22T17:15:50.935Z,98992.53
2023-05-22T17:21:20.829Z,98977.22
2023-05-22T17:23:48.200Z,98967.13
2023-05-22T17:26:15.989Z,98968.66
2023-05-22T17:28:42.954Z,98976.56
2023-05-22T17:34:06.467Z,98983.66
2023-05-22T17:36:33.923Z,98987.97
2023-05-22T17:39:01.222Z,98985.13
2023-05-22T17:41:28.688Z,98986.16
2023-05-22T17:46:58.303Z,99008.66
2023-05-22T17:49:32.727Z,99010.09
2023-05-22T17:52:08.659Z,99019.72
2023-05-22T17:54:36.247Z,99011.59
2023-05-22T17:59:59.381Z,99009.09
2023-05-22T18:02:27.056Z,99000.19
2023-05-22T18:04:54.477Z,99006.59
2023-05-22T18:07:21.729Z,99006.13
2023-05-22T18:09:49.233Z,98986.06
2023-05-22T18:12:31.213Z,98987.13
2023-05-22T18:14:59.243Z,99014.19
2023-05-22T18:17:28.492Z,99010.13
2023-05-22T18:19:55.667Z,99013.13
2023-05-22T18:25:12.307Z,99004.75
2023-05-22T18:27:39.401Z,99016.00
2023-05-22T18:32:49.509Z,99017.38
2023-05-22T18:35:16.890Z,99024.88
2023-05-22T18:37:44.078Z,99013.94
2023-05-22T18:40:11.897Z,99027.41
2023-05-22T18:42:39.097Z,99037.81
2023-05-22T18:45:07.050Z,99031.69
2023-05-22T18:47:34.249Z,99030.44
2023-05-22T18:50:01.497Z,99029.53
2023-05-22T18:52:28.821Z,99038.94
2023-05-22T18:54:56.026Z,99051.25
2023-05-22T18:57:22.916Z,99025.91
2023-05-22T18:59:51.312Z,99045.19
2023-05-22T19:02:21.896Z,99039.53
2023-05-22T19:04:50.635Z,99036.84
2023-05-22T19:07:18.357Z,99031.88
2023-05-22T19:09:45.503Z,99037.22
2023-05-22T19:12:12.661Z,99051.34
2023-05-22T19:14:40.112Z,99042.78
2023-05-22T19:17:07.517Z,99060.34
2023-05-22T19:19:37.213Z,99058.66
2023-05-22T19:22:05.468Z,99059.31
2023-05-22T19:24:34.056Z,99046.72
2023-05-22T19:27:01.367Z,99051.00
2023-05-22T19:29:28.476Z,99066.25
2023-05-22T19:32:01.607Z,99064.53
2023-05-22T19:34:28.721Z,99074.88
2023-05-22T19:36:57.990Z,99073.22
2023-05-22T19:39:25.633Z,99074.03
2023-05-22T19:41:53.077Z,99062.69
2023-05-22T19:44:20.553Z,99081.03
2023-05-22T19:46:48.072Z,99073.88
2023-05-22T19:49:15.413Z,99074.69
2023-05-22T19:51:43.103Z,99079.72
2023-05-22T19:54:10.220Z,99082.34
2023-05-22T19:56:38.239Z,99069.88
2023-05-22T19:59:05.325Z,99082.97
2023-05-22T20:01:32.440Z,99064.53
2023-05-22T20:04:01.104Z,99076.34
2023-05-22T20:06:31.763Z,99074.53
2023-05-22T20:08:58.617Z,99075.97
2023-05-22T20:11:26.442Z,99064.63
2023-05-22T20:13:54.572Z,99063.81
2023-05-22T20:16:21.749Z,99066.16
2023-05-22T20:18:48.981Z,99084.16
2023-05-22T20:21:16.186Z,99068.56
2023-05-22T20:23:43.129Z,99072.31
2023-05-22T20:26:10.290Z,99080.66
2023-05-22T20:28:37.550Z,99046.97
2023-05-22T20:31:06.205Z,99060.75
2023-05-22T20:33:33.260Z,99058.16
2023-05-22T20:36:01.725Z,99062.75
2023-05-22T20:38:29.374Z,99052.34
2023-05-22T20:40:58.697Z,99054.88
2023-05-22T20:43:26.316Z,99070.25
2023-05-22T20:45:54.262Z,99067.91
2023-05-22T20:48:21.378Z,99067.84
2023-05-22T20:50:50.583Z,99077.25
2023-05-22T20:53:18.283Z,99081.28
2023-05-22T20:55:45.481Z,99057.44
2023-05-22T20:58:14.020Z,99075.94
2023-05-22T21:00:42.138Z,99075.19
2023-05-22T21:03:09.602Z,99051.66
2023-05-22T21:05:37.009Z,99056.91
2023-05-22T21:08:03.945Z,99057.53
2023-05-22T21:10:30.943Z,99077.41
2023-05-22T21:12:58.144Z,99066.59
2023-05-22T21:15:25.405Z,99063.28
2023-05-22T21:17:52.562Z,99054.59
2023-05-22T21:20:19.610Z,99061.22
2023-05-22T21:22:48.333Z,99063.91
2023-05-22T21:25:15.398Z,99054.34
2023-05-22T21:27:42.553Z,99055.78
2023-05-22T21:30:12.848Z,99060.00
2023-05-22T21:32:39.916Z,99061.81
2023-05-22T21:35:08.799Z,99067.91
2023-05-22T21:37:36.095Z,99059.84
2023-05-22T21:40:09.776Z,99053.47
2023-05-22T21:42:46.418Z,99046.84
2023-05-22T21:45:14.631Z,99043.53
2023-05-22T21:47:41.781Z,99036.91
2023-05-22T21:50:09.378Z,99048.19
2023-05-22T21:52:36.363Z,99037.19
2023-05-22T21:55:04.168Z,99055.81
2023-05-22T21:57:31.261Z,99046.13
2023-05-22T21:59:58.468Z,99050.78
2023-05-22T22:02:25.746Z,99038.34
2023-05-22T22:04:52.701Z,99047.38
2023-05-22T22:07:19.750Z,99044.78
2023-05-22T22:09:46.781Z,99053.91
2023-05-22T22:12:14.052Z,99047.91
2023-05-22T22:14:41.119Z,99043.25
2023-05-22T22:17:09.166Z,99060.34
2023-05-22T22:19:36.368Z,99056.78
2023-05-22T22:22:03.832Z,99027.94
2023-05-22T22:24:31.179Z,99047.09
2023-05-22T22:26:58.561Z,99055.88
2023-05-22T22:29:26.239Z,99043.78
2023-05-22T22:31:53.516Z,99050.03
2023-05-22T22:34:20.910Z,99037.13
2023-05-22T22:36:48.102Z,99039.22
2023-05-22T22:39:15.208Z,99036.06
2023-05-22T22:41:45.691Z,99021.47
2023-05-22T22:44:12.652Z,99028.63
2023-05-22T22:46:40.338Z,99008.81
2023-05-22T22:49:07.268Z,99023.34
2023-05-22T22:51:34.693Z,99011.97
2023-05-22T22:54:01.911Z,99019.91
2023-05-22T22:56:29.524Z,99025.13
2023-05-22T22:58:57.498Z,99014.97
2023-05-22T23:01:24.836Z,99026.97
2023-05-22T23:03:52.096Z,99007.53
2023-05-22T23:06:19.535Z,99009.84
2023-05-22T23:08:46.579Z,99007.78
2023-05-22T23:11:13.654Z,99000.97
2023-05-22T23:13:41.517Z,99009.91
2023-05-22T23:16:08.691Z,99005.59
2023-05-22T23:18:35.810Z,98997.44
2023-05-22T23:21:02.962Z,99008.06
2023-05-22T23:23:29.967Z,99011.31
2023-05-22T23:25:58.900Z,99001.16
2023-05-22T23:28:26.278Z,99005.78
2023-05-22T23:30:53.247Z,99001.25
2023-05-22T23:33:21.454Z,99010.88
2023-05-22T23:35:48.340Z,99012.94
2023-05-22T23:38:15.494Z,99003.34
2023-05-22T23:40:42.676Z,99004.50
2023-05-22T23:43:09.732Z,99010.72
2023-05-22T23:45:36.767Z,99005.66
2023-05-22T23:48:04.589Z,99011.91
2023-05-22T23:50:31.764Z,99003.38
2023-05-22T23:52:58.820Z,99003.63
2023-05-22T23:55:25.922Z,99015.00
2023-05-22T23:57:52.972Z,99013.63
